createdAt,value
2022-11-30T00:02:51.562Z,3.6
2022-11-30T00:07:57.903Z,3.6
2022-11-30T00:13:04.278Z,3.6
2022-11-30T00:18:10.562Z,3.6
2022-11-30T00:23:16.868Z,3.6
2022-11-30T00:28:23.202Z,3.6
2022-11-30T00:33:29.542Z,3.6
2022-11-30T00:38:35.876Z,3.6
2022-11-30T00:43:42.176Z,3.5
2022-11-30T00:48:48.506Z,3.5
2022-11-30T00:53:53.940Z,3.6
2022-11-30T00:59:00.291Z,3.5
2022-11-30T01:04:06.593Z,3.5
2022-11-30T01:09:12.089Z,3.5
2022-11-30T01:14:18.372Z,3.5
2022-11-30T01:19:24.692Z,3.5
2022-11-30T01:29:37.341Z,3.5
2022-11-30T01:34:43.673Z,3.5
2022-11-30T01:39:50.016Z,3.5
2022-11-30T01:44:56.308Z,3.5
2022-11-30T01:50:02.643Z,3.5
2022-11-30T01:55:08.967Z,3.5
2022-11-30T02:00:15.309Z,3.5
2022-11-30T02:05:21.682Z,3.5
2022-11-30T02:10:28.015Z,3.5
2022-11-30T02:15:33.464Z,3.5
2022-11-30T02:20:39.779Z,3.5
2022-11-30T02:25:46.115Z,3.5
2022-11-30T02:30:52.474Z,3.5
2022-11-30T02:35:58.760Z,3.5
2022-11-30T02:41:05.089Z,3.5
2022-11-30T02:46:11.397Z,3.5
2022-11-30T02:51:17.742Z,3.5
2022-11-30T02:56:24.071Z,3.5
2022-11-30T03:01:30.455Z,3.5
2022-11-30T03:06:36.710Z,3.5
2022-11-30T03:11:43.037Z,3.5
2022-11-30T03:47:27.314Z,3.4
2022-11-30T03:52:32.792Z,3.4
2022-11-30T03:57:38.234Z,3.4
2022-11-30T04:02:44.552Z,3.4
2022-11-30T04:07:50.886Z,3.4
2022-11-30T04:12:57.201Z,3.4
2022-11-30T04:18:03.520Z,3.4
2022-11-30T04:23:09.843Z,3.3
2022-11-30T04:28:16.176Z,3.4
2022-11-30T04:33:22.503Z,3.3
2022-11-30T04:38:28.819Z,3.3
2022-11-30T04:43:35.150Z,3.3
2022-11-30T04:48:40.620Z,3.3
2022-11-30T04:53:46.142Z,3.3
2022-11-30T04:58:52.387Z,3.3
2022-11-30T05:03:58.725Z,3.3
2022-11-30T05:09:05.132Z,3.3
2022-11-30T05:14:11.378Z,3.3
2022-11-30T05:19:17.711Z,3.2
2022-11-30T05:24:24.061Z,3.2
2022-11-30T05:29:30.359Z,3.2
2022-11-30T05:34:36.693Z,3.2
2022-11-30T05:44:49.363Z,3.2
2022-11-30T05:49:55.666Z,3.1
2022-11-30T05:55:01.992Z,3.1
2022-11-30T06:00:07.437Z,3.1
2022-11-30T06:05:13.779Z,3.1
2022-11-30T06:10:20.100Z,3.1
2022-11-30T06:15:26.419Z,3.1
2022-11-30T06:20:32.744Z,3.1
2022-11-30T06:25:39.056Z,3.1
2022-11-30T06:30:45.406Z,3
2022-11-30T06:35:51.741Z,3
2022-11-30T06:40:58.055Z,3
2022-11-30T06:46:04.376Z,3
2022-11-30T06:51:10.708Z,3
2022-11-30T06:56:17.113Z,3
2022-11-30T07:01:23.402Z,3
2022-11-30T07:06:28.791Z,3
2022-11-30T07:11:35.205Z,3.1
2022-11-30T07:16:41.463Z,3
2022-11-30T07:21:47.770Z,3
2022-11-30T07:26:54.102Z,3.1
2022-11-30T07:32:00.446Z,3
2022-11-30T07:37:06.742Z,3.1
2022-11-30T07:42:13.067Z,3
2022-11-30T07:47:19.438Z,3
2022-11-30T07:52:25.734Z,3.1
2022-11-30T07:57:32.057Z,3.1
2022-11-30T08:02:38.367Z,3.1
2022-11-30T08:07:44.692Z,3
2022-11-30T08:12:50.168Z,3.1
2022-11-30T08:17:56.477Z,3.1
2022-11-30T08:23:02.986Z,3.1
2022-11-30T08:28:09.294Z,3
2022-11-30T08:33:15.604Z,3.1
2022-11-30T08:38:21.954Z,3
2022-11-30T08:43:28.284Z,3
2022-11-30T08:48:34.607Z,3.1
2022-11-30T08:53:40.904Z,3
2022-11-30T08:58:47.066Z,3
2022-11-30T09:03:53.480Z,3
2022-11-30T09:08:59.813Z,3.1
2022-11-30T09:14:06.253Z,3.1
2022-11-30T09:19:11.539Z,3.1
2022-11-30T09:24:17.833Z,3.2
2022-11-30T09:29:24.278Z,3.2
2022-11-30T09:34:30.638Z,3.3
2022-11-30T09:39:36.936Z,3.2
2022-11-30T09:44:43.260Z,3.2
2022-11-30T09:49:49.674Z,3.2
2022-11-30T09:54:55.942Z,3.2
2022-11-30T10:00:02.353Z,3.3
2022-11-30T10:05:08.588Z,3.4
2022-11-30T10:10:14.921Z,3.5
2022-11-30T10:15:21.241Z,3.6
2022-11-30T10:20:27.620Z,3.7
2022-11-30T10:25:33.048Z,4
2022-11-30T10:30:39.303Z,4
2022-11-30T10:40:51.832Z,3.9
2022-11-30T10:45:58.314Z,3.9
2022-11-30T10:51:04.570Z,3.8
2022-11-30T11:01:17.199Z,3.9
2022-11-30T11:06:23.518Z,3.9
2022-11-30T11:11:29.975Z,3.9
2022-11-30T11:16:36.171Z,3.8
2022-11-30T11:21:42.644Z,3.8
2022-11-30T11:26:48.980Z,3.9
2022-11-30T11:31:55.257Z,3.9
2022-11-30T11:37:01.469Z,3.9
2022-11-30T11:42:07.939Z,3.9
2022-11-30T11:47:14.108Z,3.9
2022-11-30T11:52:19.770Z,3.9
2022-11-30T11:57:26.111Z,3.9
2022-11-30T12:02:32.384Z,3.9
2022-11-30T12:07:38.639Z,4
2022-11-30T12:12:44.854Z,4.1
2022-11-30T12:17:51.198Z,4.2
2022-11-30T12:22:57.698Z,4.2
2022-11-30T12:28:03.890Z,4.2
2022-11-30T12:33:10.211Z,4.3
2022-11-30T12:38:16.596Z,4.3
2022-11-30T12:43:22.827Z,4.3
2022-11-30T12:48:29.172Z,4.3
2022-11-30T12:53:35.536Z,4.3
2022-11-30T12:58:40.976Z,4.3
2022-11-30T13:03:47.385Z,4.3
2022-11-30T13:08:53.614Z,4.3
2022-11-30T13:13:59.885Z,4.3
2022-11-30T13:19:06.230Z,4.3
2022-11-30T14:25:28.429Z,4.1
2022-11-30T14:30:34.893Z,4
2022-11-30T14:35:41.099Z,4
2022-11-30T14:40:47.415Z,4
2022-11-30T14:45:53.724Z,3.8
2022-11-30T14:50:59.230Z,3.8
2022-11-30T14:56:05.530Z,3.7
2022-11-30T15:01:10.973Z,3.6
2022-11-30T15:06:17.377Z,3.4
2022-11-30T15:11:23.683Z,3.3
2022-11-30T15:16:30.031Z,3.3
2022-11-30T15:21:36.346Z,3.2
2022-11-30T15:31:49.002Z,2.9
2022-11-30T15:36:55.264Z,2.8
2022-11-30T15:42:01.661Z,2.6
2022-11-30T15:52:14.327Z,2.3
2022-11-30T16:02:26.903Z,1.9
2022-11-30T16:07:33.212Z,1.7
2022-11-30T16:12:39.537Z,1.5
2022-11-30T16:17:45.879Z,1.3
2022-11-30T16:22:52.208Z,1.2
2022-11-30T16:27:57.719Z,1.1
2022-11-30T16:33:04.102Z,1
2022-11-30T16:38:10.447Z,1
2022-11-30T16:43:16.727Z,1
2022-11-30T16:53:29.330Z,0.8
2022-11-30T16:58:35.655Z,0.8
2022-11-30T17:03:41.996Z,0.7
2022-11-30T17:08:48.290Z,0.7
2022-11-30T17:13:54.726Z,0.6
2022-11-30T17:24:07.285Z,0.5
2022-11-30T17:34:20.000Z,0.5
2022-11-30T17:39:26.340Z,0.4
2022-11-30T17:44:32.653Z,0.4
2022-11-30T17:54:45.316Z,0.4
2022-11-30T17:59:51.568Z,0.4
2022-11-30T18:15:10.565Z,0.3
2022-11-30T18:25:22.394Z,0.3
2022-11-30T18:35:34.167Z,0.2
2022-11-30T18:45:46.772Z,0.2
2022-11-30T18:50:53.096Z,0.1
2022-11-30T18:55:59.520Z,0.1
2022-11-30T19:01:04.951Z,0.1
2022-11-30T19:06:11.242Z,0
2022-11-30T19:11:17.593Z,0.1
2022-11-30T19:16:23.859Z,0.1
2022-11-30T19:21:30.253Z,0.1
2022-11-30T19:26:36.615Z,0.1
2022-11-30T19:31:42.820Z,0.2
2022-11-30T19:36:49.227Z,0.2
2022-11-30T19:41:55.531Z,0.1
2022-11-30T19:47:01.914Z,0.1
2022-11-30T19:52:08.223Z,0
2022-11-30T19:57:14.553Z,0
2022-11-30T20:07:27.228Z,0
2022-11-30T20:17:39.031Z,0
2022-11-30T20:22:45.272Z,-0.1
2022-11-30T20:27:51.538Z,-0.1
2022-11-30T20:32:58.005Z,-0.1
2022-11-30T20:38:04.284Z,0
2022-11-30T20:43:10.692Z,0
2022-11-30T20:48:16.893Z,0
2022-11-30T20:53:23.179Z,0
2022-11-30T20:58:29.536Z,0
2022-11-30T21:03:35.839Z,-0.1
2022-11-30T21:08:42.264Z,-0.1
2022-11-30T21:13:48.632Z,-0.1
2022-11-30T21:18:54.829Z,-0.1
2022-11-30T21:24:00.383Z,-0.1
2022-11-30T21:29:06.642Z,-0.2
2022-11-30T21:34:12.956Z,-0.3
2022-11-30T21:39:19.410Z,-0.3
2022-11-30T21:44:25.604Z,-0.3
2022-11-30T21:49:32.037Z,-0.4
2022-11-30T21:54:37.462Z,-0.4
2022-11-30T21:59:43.799Z,-0.4
2022-11-30T22:04:49.259Z,-0.4
2022-11-30T22:09:55.562Z,-0.5
2022-11-30T22:15:01.817Z,-0.4
2022-11-30T22:20:08.141Z,-0.4
2022-11-30T22:25:14.614Z,-0.4
2022-11-30T22:30:20.815Z,-0.4
2022-11-30T22:35:27.128Z,-0.4
2022-11-30T22:40:33.468Z,-0.3
2022-11-30T22:45:39.785Z,-0.3
2022-11-30T22:50:46.116Z,-0.4
2022-11-30T22:55:52.445Z,-0.4
2022-11-30T23:00:58.779Z,-0.4
2022-11-30T23:06:04.227Z,-0.4
2022-11-30T23:11:10.556Z,-0.4
2022-11-30T23:16:16.892Z,-0.4
2022-11-30T23:21:23.215Z,-0.3
2022-11-30T23:26:28.708Z,-0.3
2022-11-30T23:31:35.003Z,-0.3
2022-11-30T23:41:47.632Z,-0.3
2022-11-30T23:46:53.993Z,-0.4
2022-11-30T23:52:00.363Z,-0.4
2022-11-30T23:57:06.668Z,-0.3
